Alta Vista, Kansas
Current Conditions -  °F | °C
As of 4:58 PM on Monday 20 Oct 2014 (Local Time) from KFRI Reporting Station
Clear Clear  
Wind Chill: 25°   Ceiling: Unl
Heat Index: 25°   Visibility: 10mi
Dew Point:   Wind: 6mph
Humidity: 26%   Direction: 40°NE
Pressure: 30.04"   Gusts: NA
Location:  38.86°N, 96.49°W
Report Text: KFRI 202158Z AUTO 04005KT 10SM CLR 25/04 A3004 RMK AO2 SLP167 T02470039
Loading
Personal Weather Stations






























Interactive Weather Map
Tropical Storm Tracking
New forecast layout! Learn more

10-Day Weather Forecast

Advertisements
Track Severe Weather on mobile